Time;durP1;ratioP1;P1;durP2;ratioP2;P2;SDS_P1;SDS_P2;PMS_P1;PMS_P2;Temp;Humidity;BMP_temperature;BMP_pressure;BME280_temperature;BME280_humidity;BME280_pressure;Samples;Min_cycle;Max_cycle;Signal;HPM_P1;HPM_P2
2022/10/26 00:01:22;;;;;;;94.03;52.40;;;9.70;99.90;;;;;;5152976;27;20293;-52
2022/10/26 00:03:50;;;;;;;37.13;20.17;;;9.70;99.90;;;;;;5148080;27;20297;-52
2022/10/26 00:06:20;;;;;;;148.73;74.07;;;9.70;99.90;;;;;;5138712;27;20306;-53
2022/10/26 00:08:49;;;;;;;208.53;108.83;;;9.70;99.90;;;;;;5153487;27;20230;-53
2022/10/26 00:11:18;;;;;;;37.43;16.53;;;9.70;99.90;;;;;;5153724;27;20321;-53
2022/10/26 00:13:47;;;;;;;250.27;130.40;;;9.70;99.90;;;;;;5153521;27;20645;-53
2022/10/26 00:16:18;;;;;;;303.63;126.27;;;9.70;99.90;;;;;;5153504;27;20872;-52
2022/10/26 00:18:47;;;;;;;290.20;167.10;;;9.70;99.90;;;;;;5148506;27;20452;-53
2022/10/26 00:21:16;;;;;;;332.97;183.60;;;9.70;99.90;;;;;;5133345;27;20210;-52
2022/10/26 00:23:44;;;;;;;210.50;101.80;;;9.70;99.90;;;;;;5132376;27;20199;-53
2022/10/26 00:26:13;;;;;;;137.10;56.53;;;9.70;99.90;;;;;;5132881;27;20290;-53
2022/10/26 00:28:41;;;;;;;249.60;123.00;;;9.70;99.90;;;;;;5122394;27;20298;-53
2022/10/26 00:31:13;;;;;;;268.23;139.67;;;9.70;99.90;;;;;;5132915;27;20683;-53
2022/10/26 00:33:43;;;;;;;32.40;18.70;;;9.70;99.90;;;;;;5122274;27;20314;-53
2022/10/26 00:36:15;;;;;;;23.70;13.47;;;9.80;99.90;;;;;;5136538;27;20258;-52
2022/10/26 00:38:48;;;;;;;16.60;9.47;;;9.80;99.90;;;;;;5146359;27;20225;-52
2022/10/26 00:41:16;;;;;;;148.83;70.27;;;9.80;99.90;;;;;;5140329;27;20233;-52
2022/10/26 00:43:45;;;;;;;185.63;114.80;;;9.80;99.90;;;;;;5145718;27;20240;-52
2022/10/26 00:46:16;;;;;;;53.20;29.53;;;9.80;99.90;;;;;;5152909;27;20289;-53
2022/10/26 00:48:49;;;;;;;48.80;24.13;;;9.80;99.90;;;;;;5152827;27;20263;-53
2022/10/26 00:51:23;;;;;;;141.30;75.87;;;9.90;99.90;;;;;;5137509;27;20245;-53
2022/10/26 00:53:52;;;;;;;159.07;59.30;;;9.80;99.90;;;;;;5153240;27;20215;-53
2022/10/26 00:56:20;;;;;;;564.07;315.30;;;9.80;99.90;;;;;;5150266;27;20233;-53
2022/10/26 00:58:49;;;;;;;260.60;142.17;;;9.80;99.90;;;;;;5152595;27;20713;-52
2022/10/26 01:01:17;;;;;;;266.33;107.87;;;9.80;99.90;;;;;;5153299;27;20285;-53
2022/10/26 01:03:47;;;;;;;211.30;123.77;;;9.80;99.90;;;;;;5152123;27;20663;-53
2022/10/26 01:06:16;;;;;;;218.90;123.37;;;9.80;99.90;;;;;;5149396;27;20200;-53
2022/10/26 01:08:44;;;;;;;230.40;115.53;;;9.80;99.90;;;;;;5139232;27;20257;-53
2022/10/26 01:11:13;;;;;;;26.13;12.20;;;9.80;99.90;;;;;;5152556;27;20672;-53
2022/10/26 01:13:43;;;;;;;254.57;117.23;;;9.90;99.90;;;;;;5152526;27;20229;-52
2022/10/26 01:16:33;;;;;;;211.73;115.17;;;9.90;99.90;;;;;;5152598;27;20245;-53
2022/10/26 01:19:41;;;;;;;149.30;59.13;;;9.90;99.90;;;;;;5129858;27;20233;-53
2022/10/26 01:22:12;;;;;;;171.93;86.20;;;9.90;99.90;;;;;;5142804;27;20215;-53
2022/10/26 01:24:58;;;;;;;379.77;209.23;;;9.90;99.90;;;;;;5152692;27;20238;-52
2022/10/26 01:27:30;;;;;;;214.77;103.80;;;9.90;99.90;;;;;;5125357;27;20956;-53
2022/10/26 01:30:32;;;;;;;81.87;35.03;;;9.90;99.90;;;;;;5146410;27;20639;-53
2022/10/26 01:33:15;;;;;;;190.17;115.13;;;10.00;99.90;;;;;;5143607;27;20237;-53
2022/10/26 01:36:01;;;;;;;330.43;153.73;;;9.90;99.90;;;;;;5123647;27;20288;-52
2022/10/26 01:38:34;;;;;;;95.50;38.13;;;9.90;99.90;;;;;;5152620;27;20222;-52
2022/10/26 01:41:10;;;;;;;191.73;85.37;;;9.90;99.90;;;;;;5146084;27;20290;-52
2022/10/26 01:43:43;;;;;;;529.83;297.70;;;9.90;99.90;;;;;;5147043;27;20377;-52
2022/10/26 01:46:14;;;;;;;35.57;22.57;;;9.90;99.90;;;;;;5152633;27;20291;-53
2022/10/26 01:48:45;;;;;;;160.70;64.67;;;9.90;99.90;;;;;;5151464;27;20867;-53
2022/10/26 01:51:15;;;;;;;147.20;72.73;;;9.90;99.90;;;;;;5152482;27;20210;-53
2022/10/26 01:53:46;;;;;;;367.77;174.70;;;9.90;99.90;;;;;;5152214;27;20297;-52
2022/10/26 01:56:20;;;;;;;50.53;29.50;;;9.90;99.90;;;;;;5151828;27;20225;-53
2022/10/26 01:59:11;;;;;;;365.00;140.20;;;10.00;99.90;;;;;;5147413;27;20244;-52
2022/10/26 02:02:06;;;;;;;239.83;90.03;;;10.00;99.90;;;;;;5127966;27;20194;-52
2022/10/26 02:04:46;;;;;;;170.87;108.70;;;10.00;99.90;;;;;;5086260;27;20233;-53
2022/10/26 02:07:24;;;;;;;120.00;52.40;;;10.00;99.90;;;;;;5151168;27;20233;-53
2022/10/26 02:10:00;;;;;;;210.70;97.77;;;10.00;99.90;;;;;;5151718;27;20208;-51
2022/10/26 02:12:38;;;;;;;16.03;10.90;;;10.00;99.90;;;;;;5149295;27;20229;-52
2022/10/26 02:15:09;;;;;;;386.00;223.00;;;10.00;99.90;;;;;;5151514;27;20289;-53
2022/10/26 02:17:47;;;;;;;117.23;49.23;;;10.10;99.90;;;;;;5150411;27;20253;-52
2022/10/26 02:20:21;;;;;;;252.90;124.67;;;10.10;99.90;;;;;;5128719;27;20198;-53
2022/10/26 02:22:51;;;;;;;91.77;54.43;;;10.10;99.90;;;;;;5151158;27;20206;-53
2022/10/26 02:25:25;;;;;;;309.20;146.37;;;10.20;99.90;;;;;;5140663;27;20651;-52
2022/10/26 02:27:58;;;;;;;269.90;163.80;;;10.20;99.90;;;;;;5146169;27;20262;-53
2022/10/26 02:30:26;;;;;;;136.63;72.90;;;10.20;99.90;;;;;;5151680;27;20265;-52
2022/10/26 02:32:57;;;;;;;366.80;190.90;;;10.20;99.90;;;;;;5150089;27;20225;-53
2022/10/26 02:35:28;;;;;;;264.10;150.97;;;10.20;99.90;;;;;;5149656;27;20247;-53
2022/10/26 02:37:59;;;;;;;183.00;78.23;;;10.20;99.90;;;;;;5145137;27;20262;-53
2022/10/26 02:40:29;;;;;;;49.70;24.40;;;10.20;99.90;;;;;;5149492;27;20243;-52
2022/10/26 02:43:01;;;;;;;299.40;138.73;;;10.20;99.90;;;;;;5138710;27;20249;-53
2022/10/26 02:45:34;;;;;;;147.47;70.60;;;10.20;99.90;;;;;;5151238;27;20206;-53
2022/10/26 02:48:04;;;;;;;402.00;157.50;;;10.20;99.90;;;;;;5149898;27;20231;-51
2022/10/26 02:50:38;;;;;;;234.90;100.87;;;10.20;99.90;;;;;;5151232;27;20682;-53
2022/10/26 02:53:17;;;;;;;250.77;131.57;;;10.20;99.90;;;;;;5151097;27;20198;-53
2022/10/26 02:55:50;;;;;;;305.43;166.97;;;10.20;99.90;;;;;;5152462;27;20292;-56
2022/10/26 02:58:22;;;;;;;155.87;64.70;;;10.30;99.90;;;;;;5148578;27;20262;-53
2022/10/26 03:00:51;;;;;;;159.47;87.67;;;10.30;99.90;;;;;;5153112;27;20237;-53
2022/10/26 03:03:21;;;;;;;511.30;264.87;;;10.30;99.90;;;;;;5128565;27;20764;-53
2022/10/26 03:05:49;;;;;;;699.97;379.87;;;10.30;99.90;;;;;;5150986;27;20298;-53
2022/10/26 03:08:18;;;;;;;259.83;103.73;;;10.30;99.90;;;;;;5150618;27;20253;-53
2022/10/26 03:10:46;;;;;;;76.63;48.03;;;10.40;99.90;;;;;;5151371;27;20690;-52
2022/10/26 03:13:14;;;;;;;271.27;101.97;;;10.40;99.90;;;;;;5151290;27;20206;-53
2022/10/26 03:15:42;;;;;;;335.47;140.37;;;10.40;99.90;;;;;;5147079;27;20309;-52
2022/10/26 03:18:11;;;;;;;155.27;68.43;;;10.40;99.90;;;;;;5152760;27;20301;-53
2022/10/26 03:20:40;;;;;;;567.97;305.23;;;10.40;99.90;;;;;;5155530;27;20238;-52
2022/10/26 03:23:08;;;;;;;25.53;11.30;;;10.40;99.90;;;;;;5154674;27;20321;-53
2022/10/26 03:25:36;;;;;;;641.13;347.33;;;10.40;99.90;;;;;;5154749;27;20289;-52
2022/10/26 03:28:05;;;;;;;510.53;317.57;;;10.50;99.90;;;;;;5149119;27;20770;-52
2022/10/26 03:30:33;;;;;;;147.23;64.57;;;10.40;99.90;;;;;;5150255;27;20203;-52
2022/10/26 03:33:01;;;;;;;384.67;208.87;;;10.50;99.90;;;;;;5149114;27;20202;-52
2022/10/26 03:35:29;;;;;;;227.03;128.40;;;10.50;99.90;;;;;;5151090;27;20237;-53
2022/10/26 03:37:58;;;;;;;153.83;73.07;;;10.50;99.90;;;;;;5154419;27;20336;-53
2022/10/26 03:40:26;;;;;;;770.10;418.60;;;10.60;99.90;;;;;;5152770;27;20297;-53
2022/10/26 03:42:55;;;;;;;304.53;119.00;;;10.60;99.90;;;;;;5142011;27;20219;-53
2022/10/26 03:45:23;;;;;;;302.50;104.90;;;10.60;99.90;;;;;;5154055;27;20296;-52
2022/10/26 03:47:51;;;;;;;654.93;357.83;;;10.60;99.90;;;;;;5142292;27;20714;-53
2022/10/26 03:50:22;;;;;;;391.40;176.10;;;10.60;99.90;;;;;;5133394;27;20206;-52
2022/10/26 03:52:50;;;;;;;337.30;158.83;;;10.70;99.90;;;;;;5133257;27;20226;-53
2022/10/26 03:55:20;;;;;;;758.77;375.97;;;10.70;99.90;;;;;;5133669;27;20203;-53
2022/10/26 03:57:48;;;;;;;242.17;121.67;;;10.70;99.90;;;;;;5132921;27;20226;-52
2022/10/26 04:00:18;;;;;;;244.33;111.80;;;10.70;99.90;;;;;;5133254;27;20314;-52
2022/10/26 04:02:53;;;;;;;385.30;194.37;;;10.70;99.90;;;;;;5132586;27;20293;-53
2022/10/26 04:05:21;;;;;;;623.13;361.77;;;10.80;99.90;;;;;;5133299;27;20581;-53
2022/10/26 04:07:53;;;;;;;239.47;95.93;;;10.70;99.90;;;;;;5132609;27;20310;-53
2022/10/26 04:10:23;;;;;;;337.70;155.10;;;10.70;99.90;;;;;;5133458;27;20298;-52
2022/10/26 04:12:51;;;;;;;509.47;317.07;;;10.80;99.90;;;;;;5133050;27;20226;-53
2022/10/26 04:15:20;;;;;;;329.07;161.13;;;10.80;99.90;;;;;;5132935;27;20203;-53
2022/10/26 04:17:48;;;;;;;184.10;73.50;;;10.80;99.90;;;;;;5132262;27;20764;-53
2022/10/26 04:20:17;;;;;;;491.67;195.40;;;10.80;99.90;;;;;;5133492;27;20214;-53
2022/10/26 04:22:45;;;;;;;447.87;258.73;;;10.80;99.90;;;;;;5133055;27;20237;-53
2022/10/26 04:25:13;;;;;;;708.63;408.37;;;10.80;99.90;;;;;;5133274;27;20211;-51
2022/10/26 04:27:42;;;;;;;508.97;231.03;;;10.80;99.90;;;;;;5131392;27;20235;-52
2022/10/26 04:30:12;;;;;;;500.07;260.47;;;10.80;99.90;;;;;;5133196;27;20199;-53
2022/10/26 04:32:40;;;;;;;574.27;330.37;;;10.70;99.90;;;;;;5131911;27;20290;-53
2022/10/26 04:35:09;;;;;;;580.33;327.03;;;10.80;99.90;;;;;;5132749;27;20207;-53
2022/10/26 04:37:42;;;;;;;342.20;200.53;;;10.80;99.90;;;;;;5132381;27;20623;-53
2022/10/26 04:40:11;;;;;;;360.63;199.40;;;10.70;99.90;;;;;;5132640;27;20231;-53
2022/10/26 04:42:46;;;;;;;442.10;197.73;;;10.70;99.90;;;;;;5124444;27;20701;-54
2022/10/26 04:45:16;;;;;;;83.07;52.03;;;10.70;99.90;;;;;;5153024;27;20208;-53
2022/10/26 04:47:44;;;;;;;471.00;231.37;;;10.70;99.90;;;;;;5122505;27;20305;-53
2022/10/26 04:50:14;;;;;;;17.73;8.97;;;10.70;99.90;;;;;;5145545;27;20202;-53
2022/10/26 04:52:42;;;;;;;236.07;98.77;;;10.60;99.90;;;;;;5151545;27;20267;-52
2022/10/26 04:55:10;;;;;;;469.97;218.43;;;10.60;99.90;;;;;;5153358;27;20206;-52
2022/10/26 04:57:38;;;;;;;192.17;76.37;;;10.60;99.90;;;;;;5152655;27;20253;-53
2022/10/26 05:00:09;;;;;;;268.57;129.73;;;10.60;99.90;;;;;;5153184;27;20240;-52
2022/10/26 05:02:37;;;;;;;153.13;66.80;;;10.60;99.90;;;;;;5147706;27;20230;-52
2022/10/26 05:05:06;;;;;;;523.33;241.63;;;10.60;99.90;;;;;;5152726;27;20286;-53
2022/10/26 05:07:39;;;;;;;122.83;43.13;;;10.60;99.90;;;;;;5152769;27;20309;-52
2022/10/26 05:10:08;;;;;;;182.30;91.47;;;10.60;99.90;;;;;;5153112;27;20229;-53
2022/10/26 05:12:36;;;;;;;639.63;347.47;;;10.70;99.90;;;;;;5141084;27;20742;-52
2022/10/26 05:15:07;;;;;;;67.77;29.97;;;10.70;99.90;;;;;;5151130;27;20285;-53
2022/10/26 05:17:36;;;;;;;135.17;60.30;;;10.70;99.90;;;;;;5137730;27;20597;-53
2022/10/26 05:20:05;;;;;;;103.93;31.70;;;10.70;99.90;;;;;;5123791;27;20260;-52
2022/10/26 05:22:33;;;;;;;160.97;82.63;;;10.80;99.90;;;;;;5152545;27;20242;-52
2022/10/26 05:25:01;;;;;;;549.43;289.33;;;10.80;99.90;;;;;;5152246;27;20286;-52
2022/10/26 05:27:29;;;;;;;266.00;104.83;;;10.80;99.90;;;;;;5146558;27;20318;-53
2022/10/26 05:29:57;;;;;;;159.70;91.67;;;10.80;99.90;;;;;;5149746;27;20195;-53
2022/10/26 05:32:27;;;;;;;147.13;78.23;;;10.80;99.90;;;;;;5150042;27;20216;-52
2022/10/26 05:34:55;;;;;;;255.73;98.20;;;10.80;99.90;;;;;;5150967;27;20206;-52
2022/10/26 05:37:23;;;;;;;335.37;167.60;;;10.90;99.90;;;;;;5141832;27;20237;-51
2022/10/26 05:39:51;;;;;;;603.43;316.67;;;10.80;99.90;;;;;;5152107;27;20262;-51
2022/10/26 05:42:19;;;;;;;104.00;37.23;;;10.90;99.90;;;;;;5137572;27;20233;-52
2022/10/26 05:44:47;;;;;;;403.20;177.63;;;10.90;99.90;;;;;;5152338;27;20260;-51
2022/10/26 05:47:15;;;;;;;228.50;105.53;;;10.90;99.90;;;;;;5151441;27;20309;-51
2022/10/26 05:49:45;;;;;;;460.73;284.27;;;10.90;99.90;;;;;;5152121;27;20251;-52
2022/10/26 05:52:13;;;;;;;234.47;111.27;;;10.90;99.90;;;;;;5151267;27;20217;-51
2022/10/26 05:54:41;;;;;;;89.80;28.77;;;10.90;99.90;;;;;;5141036;27;20237;-51
2022/10/26 05:57:11;;;;;;;455.70;235.53;;;10.90;99.90;;;;;;5153464;27;20213;-52
2022/10/26 05:59:40;;;;;;;611.53;306.87;;;10.90;99.90;;;;;;5154332;27;20214;-52
2022/10/26 06:02:18;;;;;;;309.43;126.00;;;10.90;99.90;;;;;;5151613;27;20694;-51
2022/10/26 06:04:49;;;;;;;182.73;82.47;;;10.90;99.90;;;;;;5123725;27;20278;-52
2022/10/26 06:07:19;;;;;;;396.73;206.63;;;10.90;99.90;;;;;;5150949;27;20257;-52
2022/10/26 06:09:48;;;;;;;551.97;296.97;;;11.00;99.90;;;;;;5147453;27;20270;-52
2022/10/26 06:12:17;;;;;;;337.63;174.33;;;11.00;99.90;;;;;;5148081;27;20205;-50
2022/10/26 06:14:47;;;;;;;306.73;128.10;;;11.00;99.90;;;;;;5150237;27;20199;-52
2022/10/26 06:17:38;;;;;;;451.30;175.40;;;11.00;99.90;;;;;;5151205;27;20672;-52
2022/10/26 06:20:24;;;;;;;460.27;208.47;;;11.10;99.90;;;;;;5151568;27;20297;-51
2022/10/26 06:23:04;;;;;;;427.97;219.93;;;11.10;99.90;;;;;;5137092;27;20239;-52
2022/10/26 06:25:44;;;;;;;638.90;314.03;;;11.10;99.90;;;;;;5151566;27;20205;-51
2022/10/26 06:28:24;;;;;;;170.77;70.77;;;11.20;99.90;;;;;;5146025;27;20741;-51
2022/10/26 06:30:53;;;;;;;607.93;338.50;;;11.20;99.90;;;;;;5151932;27;20277;-51
2022/10/26 06:33:21;;;;;;;456.87;235.63;;;11.20;99.90;;;;;;5150715;27;20205;-51
2022/10/26 06:36:08;;;;;;;630.23;348.97;;;11.20;99.90;;;;;;5142885;27;20650;-52
2022/10/26 06:38:38;;;;;;;254.20;121.57;;;11.20;99.90;;;;;;5150529;27;20645;-52
2022/10/26 06:41:06;;;;;;;429.50;172.20;;;11.20;99.90;;;;;;5143945;27;20284;-50
2022/10/26 06:43:36;;;;;;;748.77;444.57;;;11.20;99.90;;;;;;5144185;27;20810;-52
2022/10/26 06:46:14;;;;;;;190.73;74.70;;;11.30;99.90;;;;;;5118699;27;20296;-52
2022/10/26 06:48:50;;;;;;;315.03;138.90;;;11.30;99.90;;;;;;5140228;27;20313;-51
2022/10/26 06:51:20;;;;;;;574.73;296.57;;;11.40;99.90;;;;;;5120786;27;20286;-52
2022/10/26 06:53:56;;;;;;;157.50;66.60;;;11.40;99.90;;;;;;5143624;27;20718;-52
2022/10/26 06:56:24;;;;;;;214.83;98.97;;;11.40;99.90;;;;;;5124249;27;20201;-50
2022/10/26 06:58:55;;;;;;;471.43;235.43;;;11.50;99.90;;;;;;5148958;27;20691;-52
2022/10/26 07:01:24;;;;;;;150.30;41.83;;;11.50;99.90;;;;;;5123081;27;20230;-52
2022/10/26 07:03:52;;;;;;;530.37;248.73;;;11.60;99.90;;;;;;5141872;27;20203;-51
2022/10/26 07:06:21;;;;;;;763.97;399.23;;;11.60;99.90;;;;;;5149737;27;20285;-51
2022/10/26 07:08:50;;;;;;;514.13;237.33;;;11.70;99.90;;;;;;5149783;27;20249;-52
2022/10/26 07:11:18;;;;;;;457.87;177.03;;;11.70;99.90;;;;;;5149144;27;20659;-51
2022/10/26 07:13:48;;;;;;;659.57;341.07;;;11.80;99.90;;;;;;5130686;27;20289;-52
2022/10/26 07:16:16;;;;;;;528.23;220.20;;;11.80;99.90;;;;;;5151078;27;20236;-51
2022/10/26 07:18:45;;;;;;;347.20;116.30;;;11.80;99.90;;;;;;5150114;27;20625;-51
2022/10/26 07:21:13;;;;;;;635.97;295.73;;;11.90;99.90;;;;;;5150299;27;20218;-52
2022/10/26 07:23:42;;;;;;;490.10;210.10;;;11.80;99.90;;;;;;5150103;27;20233;-51
2022/10/26 07:26:10;;;;;;;666.13;257.27;;;11.80;99.90;;;;;;5144290;27;20210;-51
2022/10/26 07:28:38;;;;;;;900.93;439.97;;;11.90;99.90;;;;;;5145678;27;20348;-52
2022/10/26 07:31:06;;;;;;;456.80;208.97;;;12.00;99.90;;;;;;5150842;27;20230;-52
2022/10/26 07:33:34;;;;;;;868.93;422.17;;;12.10;99.90;;;;;;5149039;27;20285;-51
2022/10/26 07:36:09;;;;;;;513.17;247.60;;;12.10;99.90;;;;;;5150742;27;20206;-51
2022/10/26 07:38:38;;;;;;;717.53;348.47;;;12.10;99.90;;;;;;5150156;27;20766;-51
2022/10/26 07:41:07;;;;;;;337.10;133.43;;;12.10;99.90;;;;;;5143213;27;20238;-52
2022/10/26 07:43:35;;;;;;;381.37;158.07;;;12.10;99.90;;;;;;5125488;27;20289;-51
2022/10/26 07:46:04;;;;;;;773.90;430.93;;;12.10;99.90;;;;;;5125963;27;20198;-51
2022/10/26 07:48:32;;;;;;;495.67;187.47;;;12.20;99.90;;;;;;5136248;27;20317;-51
2022/10/26 07:51:01;;;;;;;401.57;151.27;;;12.20;99.90;;;;;;5135598;27;20206;-51
2022/10/26 07:53:30;;;;;;;470.07;167.73;;;12.20;99.90;;;;;;5150320;27;20210;-52
2022/10/26 07:55:58;;;;;;;939.57;517.27;;;12.20;99.90;;;;;;5150068;27;20202;-52
2022/10/26 07:58:28;;;;;;;690.27;288.67;;;12.20;99.90;;;;;;5149938;27;20230;-52
2022/10/26 08:00:56;;;;;;;437.30;196.30;;;12.20;99.90;;;;;;5153767;27;20272;-51
2022/10/26 08:03:24;;;;;;;696.33;299.30;;;12.20;99.90;;;;;;5144868;27;20242;-52
2022/10/26 08:05:54;;;;;;;796.37;437.27;;;12.20;99.90;;;;;;5154438;27;20301;-52
2022/10/26 08:08:23;;;;;;;260.90;115.00;;;12.20;99.90;;;;;;5153991;27;20264;-51
2022/10/26 08:10:51;;;;;;;610.37;274.07;;;12.20;99.90;;;;;;5154399;27;20287;-51
2022/10/26 08:13:19;;;;;;;748.00;274.77;;;12.20;99.90;;;;;;5156005;27;20255;-51
2022/10/26 08:15:49;;;;;;;649.63;275.20;;;12.20;99.90;;;;;;5156290;27;20214;-51
2022/10/26 08:18:17;;;;;;;571.73;281.67;;;12.20;99.90;;;;;;5153288;27;20372;-51
2022/10/26 08:20:45;;;;;;;519.33;156.53;;;12.20;99.90;;;;;;5154328;27;20863;-51
2022/10/26 08:23:13;;;;;;;395.80;139.43;;;12.30;99.90;;;;;;5148991;27;20216;-51
2022/10/26 08:25:41;;;;;;;776.93;333.93;;;12.30;99.90;;;;;;5153020;27;20293;-52
2022/10/26 08:28:09;;;;;;;750.50;366.90;;;12.30;99.90;;;;;;5140253;27;20374;-52
2022/10/26 08:30:37;;;;;;;486.37;215.33;;;12.30;99.90;;;;;;5141820;27;20212;-51
2022/10/26 08:33:09;;;;;;;317.50;113.33;;;12.40;99.90;;;;;;5152617;27;20717;-51
2022/10/26 08:35:37;;;;;;;1032.00;547.03;;;12.40;99.90;;;;;;5147097;27;20238;-51
2022/10/26 08:38:05;;;;;;;999.90;509.67;;;12.40;99.90;;;;;;5147497;27;20962;-52
2022/10/26 08:40:36;;;;;;;1004.13;502.07;;;12.50;99.90;;;;;;5143186;27;20258;-51
2022/10/26 08:43:10;;;;;;;771.93;331.30;;;12.50;99.90;;;;;;5142652;27;20206;-52
2022/10/26 08:45:41;;;;;;;824.27;376.67;;;12.60;99.90;;;;;;5153336;27;20212;-52
2022/10/26 08:48:15;;;;;;;985.77;551.00;;;12.60;99.90;;;;;;5152417;27;20256;-52
2022/10/26 08:50:48;;;;;;;495.63;225.73;;;12.70;99.90;;;;;;5153923;27;20202;-52
2022/10/26 08:53:24;;;;;;;821.43;355.37;;;12.70;99.90;;;;;;5153182;27;20289;-51
2022/10/26 08:55:56;;;;;;;828.27;306.10;;;12.80;99.90;;;;;;5153321;27;20301;-50
2022/10/26 08:58:29;;;;;;;1120.73;503.60;;;12.90;99.90;;;;;;5152493;27;20318;-52
2022/10/26 09:00:58;;;;;;;858.33;447.10;;;13.00;99.90;;;;;;5145328;27;20264;-52
2022/10/26 09:03:28;;;;;;;939.07;409.70;;;12.90;99.90;;;;;;5152468;27;20756;-52
2022/10/26 09:06:09;;;;;;;966.90;325.50;;;13.00;99.90;;;;;;5151585;27;20750;-51
2022/10/26 09:08:47;;;;;;;1006.27;417.07;;;13.10;99.90;;;;;;5148218;27;20218;-52
2022/10/26 09:11:24;;;;;;;907.17;474.97;;;13.10;99.90;;;;;;5149742;27;20230;-51
2022/10/26 09:14:02;;;;;;;1336.30;671.77;;;13.10;99.90;;;;;;5152887;27;20309;-52
2022/10/26 09:16:38;;;;;;;765.27;342.23;;;13.10;99.90;;;;;;5152807;27;20224;-52
2022/10/26 09:19:28;;;;;;;1053.10;487.40;;;13.00;99.90;;;;;;5152312;27;20253;-51
2022/10/26 09:22:02;;;;;;;652.70;343.10;;;13.10;99.90;;;;;;5126666;27;20210;-52
2022/10/26 09:24:32;;;;;;;1017.77;513.80;;;13.00;99.90;;;;;;5152730;27;20241;-51
2022/10/26 09:27:09;;;;;;;926.07;483.50;;;13.10;99.90;;;;;;5151325;27;20746;-51
2022/10/26 09:29:41;;;;;;;1005.73;487.63;;;13.10;99.90;;;;;;5134583;27;20234;-52
2022/10/26 09:32:17;;;;;;;965.40;424.17;;;13.20;99.90;;;;;;5151463;27;20194;-51
2022/10/26 09:34:50;;;;;;;1187.17;531.00;;;13.30;99.90;;;;;;5138425;27;20302;-51
2022/10/26 09:37:21;;;;;;;899.03;405.93;;;13.50;99.90;;;;;;5151799;27;20222;-51
2022/10/26 09:39:58;;;;;;;919.67;363.30;;;13.60;99.90;;;;;;5152337;27;20257;-51
2022/10/26 09:42:31;;;;;;;791.47;345.07;;;13.80;99.90;;;;;;5137412;27;20202;-52
2022/10/26 09:45:05;;;;;;;1480.03;616.90;;;13.90;99.90;;;;;;5152313;27;20241;-51
2022/10/26 09:47:36;;;;;;;917.63;405.83;;;14.00;99.90;;;;;;5150693;27;20309;-52
2022/10/26 09:50:18;;;;;;;1013.13;531.67;;;14.00;99.90;;;;;;5149984;27;20221;-52
2022/10/26 09:52:47;;;;;;;1173.13;494.63;;;14.20;99.90;;;;;;5149752;27;20225;-51
2022/10/26 09:55:16;;;;;;;926.03;392.60;;;14.30;99.90;;;;;;5151420;27;20217;-52
2022/10/26 09:57:46;;;;;;;1124.23;483.17;;;14.40;99.90;;;;;;5151838;27;20308;-52
2022/10/26 10:00:17;;;;;;;1256.10;514.40;;;14.40;99.90;;;;;;5151858;27;20727;-51
2022/10/26 10:02:50;;;;;;;1104.03;521.90;;;14.40;99.90;;;;;;5147784;27;20298;-52
2022/10/26 10:05:29;;;;;;;1419.47;619.80;;;14.40;99.90;;;;;;5141490;27;20297;-51
2022/10/26 10:08:19;;;;;;;1026.67;373.07;;;14.40;99.90;;;;;;5140078;27;20601;-51
2022/10/26 10:10:55;;;;;;;1030.60;463.63;;;14.40;99.90;;;;;;5151709;27;20666;-52
2022/10/26 10:13:25;;;;;;;1035.47;458.47;;;14.40;99.90;;;;;;5125282;27;20312;-51
2022/10/26 10:15:55;;;;;;;1186.73;519.73;;;14.50;99.90;;;;;;5143406;27;20261;-50
2022/10/26 10:18:24;;;;;;;652.60;263.20;;;14.50;99.90;;;;;;5136347;27;20253;-52
2022/10/26 10:20:56;;;;;;;1085.23;457.33;;;14.60;99.90;;;;;;5151475;27;20261;-52
2022/10/26 10:23:31;;;;;;;1129.87;451.90;;;14.70;99.90;;;;;;5149336;27;20205;-52
2022/10/26 10:26:05;;;;;;;1342.57;616.77;;;14.70;99.90;;;;;;5144335;27;20229;-50
2022/10/26 10:28:34;;;;;;;1002.57;497.83;;;14.70;99.90;;;;;;5146332;27;20271;-51
2022/10/26 10:31:04;;;;;;;915.10;546.83;;;14.50;99.90;;;;;;5151729;27;20289;-51
2022/10/26 10:33:34;;;;;;;1151.70;497.80;;;14.50;99.90;;;;;;5150471;27;20293;-52
2022/10/26 10:36:07;;;;;;;1027.50;489.40;;;14.50;99.90;;;;;;5134518;27;20289;-52
2022/10/26 10:38:40;;;;;;;1285.20;465.30;;;14.60;99.90;;;;;;5149268;27;20222;-52
2022/10/26 10:41:17;;;;;;;1053.53;489.20;;;14.60;99.90;;;;;;5143360;27;20203;-52
2022/10/26 10:43:48;;;;;;;976.22;419.33;;;14.70;99.90;;;;;;5145749;27;20202;-52
2022/10/26 10:46:25;;;;;;;1005.60;484.23;;;14.70;99.90;;;;;;5137625;27;20208;-51
2022/10/26 10:49:01;;;;;;;1043.20;491.48;;;14.80;99.90;;;;;;5140030;27;20309;-52
2022/10/26 10:51:36;;;;;;;1318.63;481.63;;;14.90;99.90;;;;;;5150908;27;20201;-52
2022/10/26 10:54:05;;;;;;;1031.32;418.67;;;15.00;99.90;;;;;;5138799;27;20687;-51
2022/10/26 10:56:40;;;;;;;1093.97;491.00;;;15.00;99.90;;;;;;5150873;27;20202;-52
2022/10/26 10:59:30;;;;;;;1317.60;551.57;;;15.00;99.90;;;;;;5150034;27;20225;-52
2022/10/26 11:02:18;;;;;;;976.10;425.50;;;15.00;99.90;;;;;;5149913;27;20225;-52
2022/10/26 11:05:00;;;;;;;1108.03;437.43;;;15.10;99.90;;;;;;5150356;27;20615;-51
2022/10/26 11:07:32;;;;;;;1325.75;503.30;;;15.10;99.90;;;;;;5132840;27;20233;-52
2022/10/26 11:10:03;;;;;;;1210.97;512.50;;;15.10;99.90;;;;;;5150730;27;20289;-52
2022/10/26 11:12:36;;;;;;;1059.43;405.42;;;15.00;99.90;;;;;;5150163;27;20629;-51
2022/10/26 11:15:12;;;;;;;1175.10;556.03;;;15.00;99.90;;;;;;5143476;27;20226;-51
2022/10/26 11:17:50;;;;;;;1207.20;530.88;;;15.10;99.90;;;;;;5147823;27;20789;-52
2022/10/26 11:20:23;;;;;;;1352.00;539.15;;;15.20;99.90;;;;;;5149592;27;20251;-51
2022/10/26 11:23:03;;;;;;;1313.90;501.30;;;15.20;99.90;;;;;;5140756;27;20230;-52
2022/10/26 11:25:43;;;;;;;1372.68;490.88;;;15.30;99.90;;;;;;5146105;27;20625;-51
2022/10/26 11:28:16;;;;;;;853.15;405.00;;;15.30;99.90;;;;;;5117023;27;20351;-52
2022/10/26 11:30:49;;;;;;;1411.20;566.75;;;15.30;99.90;;;;;;5123191;27;20230;-52
2022/10/26 11:33:23;;;;;;;828.63;385.33;;;15.40;99.90;;;;;;5129220;27;20242;-51
2022/10/26 11:35:57;;;;;;;1507.18;519.75;;;15.50;99.90;;;;;;5132917;27;20213;-51
2022/10/26 11:38:34;;;;;;;1311.97;591.85;;;15.70;99.90;;;;;;5133227;27;20730;-52
2022/10/26 11:41:26;;;;;;;1323.65;594.25;;;15.80;99.90;;;;;;5134093;27;20218;-50
2022/10/26 11:44:02;;;;;;;1233.47;537.15;;;15.90;99.90;;;;;;5139361;27;20234;-52
2022/10/26 11:46:37;;;;;;;1058.57;539.35;;;16.10;99.90;;;;;;5154932;27;20266;-52
2022/10/26 11:49:10;;;;;;;1090.05;591.70;;;16.20;99.90;;;;;;5154142;27;20309;-52
2022/10/26 11:51:43;;;;;;;1187.20;555.28;;;16.20;99.90;;;;;;5148795;27;20203;-52
2022/10/26 11:54:16;;;;;;;1070.97;497.02;;;16.20;99.90;;;;;;5151400;27;20199;-51
2022/10/26 11:56:48;;;;;;;1986.57;769.42;;;16.10;99.90;;;;;;5154352;27;20734;-51
2022/10/26 11:59:20;;;;;;;1239.13;501.23;;;16.00;99.90;;;;;;5153453;27;20340;-52
2022/10/26 12:01:52;;;;;;;1962.15;669.20;;;16.10;99.90;;;;;;5132941;27;20207;-51
2022/10/26 12:04:23;;;;;;;1305.20;517.70;;;15.90;99.90;;;;;;5139669;27;20286;-50
2022/10/26 12:06:54;;;;;;;1458.43;673.70;;;15.90;99.90;;;;;;5154504;27;20746;-52
2022/10/26 12:09:29;;;;;;;959.30;455.25;;;15.80;99.90;;;;;;5153772;27;20221;-52
2022/10/26 12:12:08;;;;;;;1067.78;495.98;;;15.70;99.90;;;;;;5153940;27;20274;-51
2022/10/26 12:14:42;;;;;;;1243.43;567.03;;;15.70;99.90;;;;;;5154873;27;20289;-51
2022/10/26 12:17:17;;;;;;;1158.10;406.40;;;15.70;99.90;;;;;;5143624;27;20202;-51
2022/10/26 12:19:51;;;;;;;1267.95;583.15;;;15.90;99.90;;;;;;5134010;27;20725;-52
2022/10/26 12:22:21;;;;;;;1100.65;525.28;;;16.20;99.90;;;;;;5144366;27;20262;-52
2022/10/26 12:25:17;;;;;;;1071.18;522.42;;;16.30;99.90;;;;;;5152605;27;20203;-51
2022/10/26 12:27:54;;;;;;;1366.68;647.78;;;16.40;99.90;;;;;;5149034;27;20262;-52
2022/10/26 12:30:28;;;;;;;1237.57;570.22;;;16.40;99.90;;;;;;5135820;27;20251;-51
2022/10/26 12:32:58;;;;;;;1353.63;612.25;;;16.50;99.90;;;;;;5150498;27;20202;-52
2022/10/26 12:35:45;;;;;;;1207.93;529.58;;;16.50;99.90;;;;;;5153446;27;20244;-51